Time;durP1;ratioP1;P1;durP2;ratioP2;P2;SDS_P1;SDS_P2;PMS_P1;PMS_P2;Temp;Humidity;BMP_temperature;BMP_pressure;BME280_temperature;BME280_humidity;BME280_pressure;Samples;Min_cycle;Max_cycle;Signal;HPM_P1;HPM_P2
2021/06/06 00:00:14;;;;;;;27.65;21.10;;;;;;;18.83;60.43;102278.19;5050512;27;114225;-74
2021/06/06 00:02:42;;;;;;;31.50;20.35;;;;;;;18.81;60.36;102280.09;5050744;27;113965;-74
2021/06/06 00:05:10;;;;;;;30.33;19.83;;;;;;;18.79;60.52;102277.44;5049037;27;124837;-74
2021/06/06 00:07:38;;;;;;;34.20;20.45;;;;;;;18.78;60.70;102281.09;5052541;27;123961;-74
2021/06/06 00:10:06;;;;;;;29.77;19.58;;;;;;;18.78;60.59;102281.09;5030282;27;113971;-74
2021/06/06 00:12:33;;;;;;;34.67;20.83;;;;;;;18.78;60.63;102283.78;5070263;27;113758;-74
2021/06/06 00:15:05;;;;;;;30.63;20.08;;;;;;;18.76;60.82;102280.34;5046769;27;123196;-74
2021/06/06 00:17:32;;;;;;;27.95;19.70;;;;;;;18.75;60.81;102283.94;5045579;27;123944;-74
2021/06/06 00:19:59;;;;;;;26.73;19.27;;;;;;;18.75;60.66;102278.59;5051838;27;114987;-74
2021/06/06 00:22:26;;;;;;;30.08;20.10;;;;;;;18.73;60.83;102285.84;5050245;27;113073;-74
2021/06/06 00:24:53;;;;;;;30.38;20.38;;;;;;;18.73;60.95;102277.81;5052222;27;124183;-74
2021/06/06 00:27:20;;;;;;;31.58;19.92;;;;;;;18.72;61.04;102284.13;5052639;27;123838;-73
2021/06/06 00:29:47;;;;;;;33.90;19.17;;;;;;;18.71;61.08;102281.53;5052836;27;114077;-74
2021/06/06 00:32:14;;;;;;;30.75;20.08;;;;;;;18.69;60.86;102287.00;5052287;27;113758;-74
2021/06/06 00:34:42;;;;;;;31.45;19.83;;;;;;;18.68;61.15;102279.88;5048277;27;123729;-74
2021/06/06 00:37:11;;;;;;;28.75;19.00;;;;;;;18.68;61.21;102285.25;5044916;27;124264;-74
2021/06/06 00:39:39;;;;;;;28.63;20.05;;;;;;;18.65;61.15;102283.63;5044278;27;115071;-74
2021/06/06 00:42:07;;;;;;;32.17;19.60;;;;;;;18.63;61.33;102284.66;5034367;27;114147;-74
2021/06/06 00:44:35;;;;;;;31.73;19.73;;;;;;;18.63;61.45;102290.03;5050711;27;122973;-74
2021/06/06 00:47:05;;;;;;;28.65;19.95;;;;;;;18.61;61.47;102286.53;5048907;27;123805;-74
2021/06/06 00:49:32;;;;;;;29.88;19.38;;;;;;;18.58;61.58;102292.09;5062908;27;114581;-74
2021/06/06 00:52:01;;;;;;;30.58;19.95;;;;;;;18.56;61.50;102294.00;5049079;27;114135;-74
2021/06/06 00:54:36;;;;;;;29.27;19.75;;;;;;;18.53;61.60;102288.78;5049852;22;124002;-64
2021/06/06 00:57:11;;;;;;;33.17;20.60;;;;;;;18.52;61.67;102297.81;5020444;28;123043;-63
2021/06/06 00:59:47;;;;;;;30.30;20.38;;;;;;;18.51;61.77;102285.34;5010933;28;113436;-64
2021/06/06 01:02:14;;;;;;;28.60;19.63;;;;;;;18.52;61.77;102287.06;5033199;28;114277;-63
2021/06/06 01:04:43;;;;;;;35.65;21.05;;;;;;;18.52;61.82;102297.81;5030375;28;125055;-64
2021/06/06 01:07:10;;;;;;;37.05;22.30;;;;;;;18.51;61.87;102296.06;5031326;28;124156;-64
2021/06/06 01:09:40;;;;;;;36.22;23.02;;;;;;;18.47;62.04;102290.84;5013117;28;113669;-63
2021/06/06 01:12:19;;;;;;;32.60;22.52;;;;;;;18.44;62.04;102285.69;5029093;27;113453;-63
2021/06/06 01:15:01;;;;;;;38.78;23.73;;;;;;;18.42;62.04;102287.59;5029474;28;123975;-63
2021/06/06 01:17:41;;;;;;;35.47;22.90;;;;;;;18.42;62.04;102287.59;5024714;28;126702;-63
2021/06/06 01:20:46;;;;;;;35.80;22.98;;;;;;;18.40;62.04;102281.44;5032253;28;114107;-63
2021/06/06 01:23:33;;;;;;;36.47;23.45;;;;;;;18.41;62.04;102290.34;5029125;27;113391;-64
2021/06/06 01:26:09;;;;;;;39.00;24.17;;;;;;;18.40;62.09;102286.81;5028536;28;124515;-63
2021/06/06 01:28:49;;;;;;;36.70;24.33;;;;;;;18.39;61.80;102293.09;5013085;28;122666;-63
2021/06/06 01:31:19;;;;;;;39.90;24.30;;;;;;;18.40;62.21;102288.59;5014477;28;114073;-63
2021/06/06 01:34:00;;;;;;;36.80;24.52;;;;;;;18.38;62.19;102280.63;5030291;28;115145;-63
2021/06/06 01:36:32;;;;;;;38.05;24.75;;;;;;;18.39;62.38;102282.38;5028871;28;124214;-63
2021/06/06 01:39:15;;;;;;;41.10;24.17;;;;;;;18.39;62.32;102285.06;5025891;28;122869;-63
2021/06/06 01:41:47;;;;;;;38.42;24.45;;;;;;;18.43;62.34;102288.44;5025969;27;113313;-63
2021/06/06 01:44:25;;;;;;;38.97;26.05;;;;;;;18.42;62.29;102282.22;5015360;28;116666;-64
2021/06/06 01:47:02;;;;;;;43.67;25.33;;;;;;;18.42;62.36;102282.22;5030058;28;124324;-64
2021/06/06 01:49:32;;;;;;;41.58;24.65;;;;;;;18.43;62.40;102277.72;5032049;28;124349;-64
2021/06/06 01:52:02;;;;;;;39.75;25.42;;;;;;;18.42;62.24;102286.69;5029213;28;113519;-64
2021/06/06 01:54:36;;;;;;;39.05;25.00;;;;;;;18.39;62.25;102279.69;5045125;27;114095;-64
2021/06/06 01:57:13;;;;;;;44.42;25.20;;;;;;;18.39;62.25;102277.00;5029817;28;124209;-65
2021/06/06 01:59:47;;;;;;;42.30;26.08;;;;;;;18.37;62.27;102284.28;5024749;27;126688;-64
2021/06/06 02:02:15;;;;;;;37.83;25.40;;;;;;;18.37;62.47;102281.59;5028625;28;113587;-64
2021/06/06 02:04:43;;;;;;;43.92;25.35;;;;;;;18.38;62.43;102275.25;5042485;27;113093;-64
2021/06/06 02:07:21;;;;;;;42.85;25.60;;;;;;;18.37;62.49;102276.22;5030347;28;124377;-64
2021/06/06 02:09:51;;;;;;;45.10;26.48;;;;;;;18.37;62.29;102278.91;5029585;28;124147;-65
2021/06/06 02:12:35;;;;;;;43.67;26.33;;;;;;;18.39;62.41;102282.38;5026600;27;113406;-65
2021/06/06 02:15:09;;;;;;;44.50;26.30;;;;;;;18.36;62.18;102270.94;5031964;27;113386;-65
2021/06/06 02:17:45;;;;;;;45.40;25.77;;;;;;;18.34;62.31;102273.72;5043940;27;126608;-65
2021/06/06 02:20:24;;;;;;;41.42;26.27;;;;;;;18.34;62.45;102278.22;5023111;27;127346;-64
2021/06/06 02:22:53;;;;;;;41.38;26.13;;;;;;;18.32;62.32;102280.97;5028709;28;115943;-64
2021/06/06 02:25:24;;;;;;;44.65;24.83;;;;;;;18.32;62.18;102285.47;5044021;27;114086;-64
2021/06/06 02:28:22;;;;;;;47.63;25.73;;;;;;;18.27;61.97;102288.41;5029752;28;123261;-64
2021/06/06 02:31:01;;;;;;;47.10;24.92;;;;;;;18.25;61.97;102291.19;5028094;28;123035;-64
2021/06/06 02:34:13;;;;;;;45.05;25.70;;;;;;;18.21;62.20;102288.75;5029754;28;114344;-64
2021/06/06 02:36:49;;;;;;;45.00;24.88;;;;;;;18.20;62.39;102292.38;4984112;28;113142;-64
2021/06/06 02:39:38;;;;;;;44.78;24.80;;;;;;;18.17;62.22;102276.44;5029918;28;127167;-64
2021/06/06 02:42:12;;;;;;;44.65;25.33;;;;;;;18.17;62.23;102293.41;5027093;28;123408;-64
2021/06/06 02:45:00;;;;;;;45.03;25.40;;;;;;;18.16;62.16;102290.78;5030162;28;114580;-64
2021/06/06 02:47:36;;;;;;;42.97;25.02;;;;;;;18.15;62.21;102284.56;5029916;28;114549;-64
2021/06/06 02:50:15;;;;;;;44.13;24.70;;;;;;;18.16;62.39;102280.06;5029684;28;124330;-64
2021/06/06 02:52:49;;;;;;;39.88;25.02;;;;;;;18.13;62.54;102281.13;5026053;28;124088;-64
2021/06/06 02:55:29;;;;;;;42.78;26.33;;;;;;;18.11;62.42;102277.66;5029488;28;113358;-64
2021/06/06 02:58:16;;;;;;;45.17;24.67;;;;;;;18.13;62.38;102285.63;5030739;28;114375;-65
2021/06/06 03:01:07;;;;;;;45.22;25.17;;;;;;;18.12;62.25;102275.81;5028304;28;124253;-64
2021/06/06 03:03:40;;;;;;;43.13;25.52;;;;;;;18.15;62.20;102278.34;5028627;28;123558;-65
2021/06/06 03:06:35;;;;;;;41.30;25.23;;;;;;;18.16;62.31;102277.38;5029176;28;114352;-64
2021/06/06 03:09:05;;;;;;;38.03;24.85;;;;;;;18.17;62.31;102274.63;5013043;28;113760;-64
2021/06/06 03:11:37;;;;;;;37.92;25.70;;;;;;;18.19;62.31;102274.56;5043817;27;123831;-64
2021/06/06 03:14:14;;;;;;;44.00;26.50;;;;;;;18.20;62.21;102270.94;5038593;27;127100;-64
2021/06/06 03:16:53;;;;;;;38.30;25.37;;;;;;;18.23;62.33;102270.75;5027090;28;115195;-64
2021/06/06 03:19:26;;;;;;;42.92;26.15;;;;;;;18.22;62.39;102271.72;5044186;27;114211;-64
2021/06/06 03:21:57;;;;;;;44.08;25.52;;;;;;;18.22;62.35;102269.03;5040209;27;126633;-65
2021/06/06 03:25:07;;;;;;;48.25;27.48;;;;;;;18.20;62.27;102265.56;5013001;28;123019;-65
2021/06/06 03:27:42;;;;;;;41.85;27.00;;;;;;;18.22;62.50;102269.03;4923588;28;113554;-65
2021/06/06 03:30:26;;;;;;;42.53;27.67;;;;;;;18.24;62.47;102264.44;4936949;28;113254;-65
2021/06/06 03:32:57;;;;;;;44.42;28.00;;;;;;;18.28;62.48;102274.06;4997975;27;123284;-65
2021/06/06 03:35:25;;;;;;;48.72;30.05;;;;;;;18.29;62.40;102270.44;5027876;28;124155;-65
2021/06/06 03:37:54;;;;;;;43.10;28.40;;;;;;;18.28;62.36;102274.06;5024970;28;113546;-65
2021/06/06 03:40:30;;;;;;;45.95;28.50;;;;;;;18.27;62.44;102272.31;5021197;28;113360;-65
2021/06/06 03:43:17;;;;;;;44.47;29.55;;;;;;;18.24;62.24;102273.34;5024981;28;123526;-64
2021/06/06 03:45:45;;;;;;;44.83;28.65;;;;;;;18.22;62.21;102275.25;5028729;28;123219;-64
2021/06/06 03:48:14;;;;;;;45.85;29.77;;;;;;;18.21;62.38;102272.66;5028453;27;113375;-64
2021/06/06 03:50:43;;;;;;;48.08;30.38;;;;;;;18.21;62.35;102270.81;5028798;28;115074;-64
2021/06/06 03:53:16;;;;;;;47.00;29.42;;;;;;;18.19;62.28;102272.72;5026040;27;123775;-63
2021/06/06 03:55:43;;;;;;;45.50;29.67;;;;;;;18.17;62.36;102273.78;5030636;28;123439;-63
2021/06/06 03:58:12;;;;;;;46.80;30.67;;;;;;;18.14;62.19;102271.25;5030842;28;114393;-63
2021/06/06 04:00:47;;;;;;;49.38;29.70;;;;;;;18.08;62.26;102275.13;5029276;28;114083;-63
2021/06/06 04:03:16;;;;;;;47.53;28.73;;;;;;;18.06;62.33;102272.56;5027618;28;123415;-63
2021/06/06 04:05:46;;;;;;;42.90;27.95;;;;;;;18.03;62.19;102270.03;5027418;28;124290;-63
2021/06/06 04:08:22;;;;;;;41.78;28.08;;;;;;;18.00;62.33;102274.69;5028052;28;115892;-63
2021/06/06 04:10:56;;;;;;;41.38;27.98;;;;;;;18.01;62.45;102276.44;5028919;28;115135;-63
2021/06/06 04:13:27;;;;;;;45.13;28.08;;;;;;;18.00;62.33;102275.53;5020123;28;123678;-63
2021/06/06 04:15:55;;;;;;;45.97;28.83;;;;;;;17.99;62.39;102281.88;5043179;27;123553;-64
2021/06/06 04:18:29;;;;;;;47.05;28.63;;;;;;;17.99;62.39;102279.19;5030614;28;114513;-65
2021/06/06 04:21:04;;;;;;;45.95;28.23;;;;;;;17.95;62.37;102282.97;5026536;28;114174;-65
2021/06/06 04:23:31;;;;;;;42.60;26.80;;;;;;;17.92;62.28;102283.13;5029561;28;124215;-65
2021/06/06 04:26:00;;;;;;;47.45;27.35;;;;;;;17.87;62.55;102286.03;5028677;28;124110;-61
2021/06/06 04:28:31;;;;;;;45.88;27.80;;;;;;;17.85;62.50;102287.06;5030803;27;114527;-62
2021/06/06 04:31:05;;;;;;;46.80;27.90;;;;;;;17.82;62.46;102287.19;5030904;28;114997;-62
2021/06/06 04:33:33;;;;;;;51.80;28.48;;;;;;;17.81;62.74;102285.47;5032246;28;124203;-62
2021/06/06 04:36:02;;;;;;;50.05;29.30;;;;;;;17.79;62.70;102282.00;5031809;28;123663;-63
2021/06/06 04:38:31;;;;;;;56.85;29.10;;;;;;;17.77;62.83;102281.22;5032151;28;113760;-63
2021/06/06 04:41:05;;;;;;;50.20;28.65;;;;;;;17.77;62.91;102283.91;5030254;28;113315;-63
2021/06/06 04:43:33;;;;;;;50.97;29.05;;;;;;;17.76;62.92;102282.16;5024598;28;123246;-62
2021/06/06 04:46:01;;;;;;;49.13;29.02;;;;;;;17.76;62.85;102277.66;5029264;28;122916;-64
2021/06/06 04:48:35;;;;;;;49.97;29.05;;;;;;;17.74;62.94;102278.69;5029603;28;113430;-64
2021/06/06 04:51:06;;;;;;;52.72;29.13;;;;;;;17.75;63.04;102280.44;5032977;28;112992;-64
2021/06/06 04:53:39;;;;;;;52.75;29.73;;;;;;;17.75;62.86;102285.81;5022986;28;126748;-64
2021/06/06 04:56:18;;;;;;;52.33;28.38;;;;;;;17.74;63.27;102289.41;5032330;28;124282;-63
2021/06/06 04:58:46;;;;;;;56.37;29.03;;;;;;;17.73;63.08;102282.34;5031202;28;115576;-62
2021/06/06 05:01:16;;;;;;;51.60;28.95;;;;;;;17.74;63.08;102281.38;5029654;28;115333;-61
2021/06/06 05:03:44;;;;;;;50.03;29.85;;;;;;;17.73;63.14;102288.56;5032312;28;123483;-62
2021/06/06 05:06:13;;;;;;;55.17;28.80;;;;;;;17.71;63.19;102285.97;5029939;28;124041;-62
2021/06/06 05:08:43;;;;;;;50.75;30.23;;;;;;;17.71;63.19;102285.09;5031303;28;114473;-62
2021/06/06 05:11:10;;;;;;;52.25;29.40;;;;;;;17.74;63.25;102278.69;5030224;28;114355;-62
2021/06/06 05:13:37;;;;;;;50.72;29.35;;;;;;;17.73;63.31;102282.34;5028027;27;123441;-62
2021/06/06 05:16:07;;;;;;;43.53;25.85;;;;;;;17.71;63.14;102280.59;5028570;27;122840;-62
2021/06/06 05:18:36;;;;;;;45.13;26.27;;;;;;;17.70;63.18;102284.22;5032045;28;113372;-62
2021/06/06 05:21:10;;;;;;;41.67;24.35;;;;;;;17.68;63.44;102286.09;5015499;28;116594;-62
2021/06/06 05:23:41;;;;;;;40.65;24.17;;;;;;;17.66;63.39;102292.50;5028223;27;123647;-62
2021/06/06 05:26:12;;;;;;;40.45;24.35;;;;;;;17.63;63.56;102293.53;5030644;27;122839;-62
2021/06/06 05:28:46;;;;;;;44.53;22.63;;;;;;;17.62;63.63;102291.78;5031069;28;113353;-62
2021/06/06 05:31:16;;;;;;;40.20;23.90;;;;;;;17.63;63.66;102293.53;5029015;28;113123;-63
2021/06/06 05:33:45;;;;;;;44.47;24.33;;;;;;;17.63;63.60;102293.53;5030992;28;124492;-63
2021/06/06 05:36:12;;;;;;;46.47;25.35;;;;;;;17.63;63.86;102298.91;5031360;28;124232;-62
2021/06/06 05:38:40;;;;;;;46.50;25.55;;;;;;;17.61;63.69;102300.78;5031406;27;114110;-62
2021/06/06 05:41:08;;;;;;;48.83;25.30;;;;;;;17.59;63.97;102297.28;5029331;28;114268;-62
2021/06/06 05:43:36;;;;;;;48.15;25.80;;;;;;;17.58;63.78;102300.94;5028256;28;124546;-62
2021/06/06 05:46:13;;;;;;;47.30;25.75;;;;;;;17.58;63.96;102300.94;5030333;28;124205;-62
2021/06/06 05:48:42;;;;;;;45.92;25.73;;;;;;;17.62;64.00;102302.50;5020313;27;115368;-62
2021/06/06 05:51:10;;;;;;;49.95;26.42;;;;;;;17.63;64.13;102309.63;5029426;28;114612;-62
2021/06/06 05:53:51;;;;;;;51.08;26.92;;;;;;;17.64;64.00;102300.63;5025170;27;126160;-62
2021/06/06 05:56:18;;;;;;;54.58;27.55;;;;;;;17.64;64.37;102311.34;5031170;28;124218;-62
2021/06/06 05:58:46;;;;;;;48.50;27.58;;;;;;;17.66;64.26;102314.78;5024704;28;114893;-63
2021/06/06 06:01:15;;;;;;;53.95;27.65;;;;;;;17.65;64.14;102307.72;5030897;28;113166;-62
2021/06/06 06:03:43;;;;;;;52.90;27.05;;;;;;;17.66;64.22;102314.78;5031363;28;124787;-64
2021/06/06 06:06:10;;;;;;;55.72;28.20;;;;;;;17.67;64.22;102318.38;5031636;28;124785;-62
2021/06/06 06:08:41;;;;;;;50.72;26.40;;;;;;;17.67;64.32;102316.53;5029866;28;113681;-63
2021/06/06 06:11:16;;;;;;;52.05;26.55;;;;;;;17.69;64.22;102314.66;5021675;28;113124;-63
2021/06/06 06:13:45;;;;;;;52.83;27.07;;;;;;;17.71;64.22;102312.75;5028927;28;124069;-62
2021/06/06 06:16:39;;;;;;;54.80;26.95;;;;;;;17.76;64.23;102311.66;5028843;27;123835;-63
2021/06/06 06:19:11;;;;;;;49.80;25.90;;;;;;;17.79;64.39;102314.19;5028630;28;112950;-63
2021/06/06 06:21:41;;;;;;;50.15;26.05;;;;;;;17.83;64.19;102315.75;5027922;28;114072;-63
2021/06/06 06:24:11;;;;;;;50.22;26.27;;;;;;;17.84;64.26;102306.78;5028307;28;124398;-62
2021/06/06 06:26:39;;;;;;;48.00;26.98;;;;;;;17.87;64.25;102310.16;5029501;28;124234;-62
2021/06/06 06:29:32;;;;;;;50.30;25.13;;;;;;;17.92;64.17;102315.31;5008304;28;115274;-62
2021/06/06 06:32:10;;;;;;;43.22;24.25;;;;;;;17.93;64.23;102311.66;5030914;28;114223;-62
2021/06/06 06:34:43;;;;;;;43.40;24.10;;;;;;;17.96;64.14;102316.88;5031696;28;123692;-61
2021/06/06 06:37:10;;;;;;;45.92;25.38;;;;;;;17.98;63.98;102309.59;5031140;28;124359;-62
2021/06/06 06:39:38;;;;;;;44.35;23.65;;;;;;;18.00;63.88;102313.06;5031659;28;115315;-62
2021/06/06 06:42:05;;;;;;;41.92;24.27;;;;;;;18.00;63.87;102302.34;5026805;28;115367;-62
2021/06/06 06:44:32;;;;;;;39.47;23.20;;;;;;;18.03;63.93;102302.19;5030884;28;124492;-62
2021/06/06 06:47:27;;;;;;;39.38;22.88;;;;;;;18.06;63.96;102309.19;5015450;28;124474;-62
2021/06/06 06:49:54;;;;;;;44.00;24.85;;;;;;;18.07;63.71;102314.47;5042477;27;113111;-62
2021/06/06 06:52:22;;;;;;;40.45;22.70;;;;;;;18.08;63.97;102310.88;5031797;28;114462;-62
2021/06/06 06:54:49;;;;;;;39.83;24.50;;;;;;;18.11;63.98;102308.97;5040300;22;123029;-72
2021/06/06 06:57:16;;;;;;;41.30;24.38;;;;;;;18.14;63.79;102314.16;5028084;28;124594;-73
2021/06/06 06:59:43;;;;;;;37.03;23.65;;;;;;;18.17;63.73;102303.28;5030178;28;113396;-74
2021/06/06 07:02:11;;;;;;;40.45;22.58;;;;;;;18.19;63.73;102314.78;5031837;28;114860;-73
2021/06/06 07:04:38;;;;;;;35.55;22.98;;;;;;;18.21;63.64;102315.56;5032442;27;124090;-73
2021/06/06 07:07:05;;;;;;;37.40;23.25;;;;;;;18.22;63.51;102311.94;5054374;27;123586;-73
2021/06/06 07:09:32;;;;;;;34.33;22.25;;;;;;;18.25;63.54;102317.13;5044322;27;114449;-73
2021/06/06 07:11:59;;;;;;;41.75;22.73;;;;;;;18.31;63.54;102316.81;5052382;27;113982;-73
2021/06/06 07:14:26;;;;;;;36.95;22.70;;;;;;;18.37;63.72;102321.84;5036659;27;123920;-73
2021/06/06 07:16:53;;;;;;;34.35;22.38;;;;;;;18.41;63.22;102322.53;5039818;27;124454;-74
2021/06/06 07:19:21;;;;;;;35.25;22.48;;;;;;;18.45;63.28;102319.59;5042665;27;115105;-73
2021/06/06 07:21:49;;;;;;;32.97;22.27;;;;;;;18.50;63.35;102327.41;5050971;27;114489;-73
2021/06/06 07:24:16;;;;;;;34.13;22.13;;;;;;;18.53;63.27;102323.66;5032154;27;123494;-73
2021/06/06 07:26:48;;;;;;;33.75;22.10;;;;;;;18.59;62.83;102331.38;5041089;27;124130;-73
2021/06/06 07:29:18;;;;;;;33.53;21.20;;;;;;;18.65;62.92;102325.69;5047185;27;115783;-73
2021/06/06 07:31:48;;;;;;;32.28;22.10;;;;;;;18.72;62.95;102332.44;5049574;27;114600;-73
2021/06/06 07:34:16;;;;;;;31.02;21.20;;;;;;;18.78;62.96;102329.44;5050296;27;123980;-73
2021/06/06 07:36:44;;;;;;;31.70;21.27;;;;;;;18.86;63.01;102329.88;5032515;27;123045;-73
2021/06/06 07:39:13;;;;;;;31.48;21.27;;;;;;;18.90;62.75;102325.22;5048974;27;113358;-73
2021/06/06 07:41:41;;;;;;;30.65;20.95;;;;;;;18.96;62.84;102324.00;5042816;27;113699;-75
2021/06/06 07:44:08;;;;;;;29.38;20.85;;;;;;;19.02;62.56;102318.25;5048209;27;124043;-73
2021/06/06 07:46:35;;;;;;;28.92;20.45;;;;;;;19.07;62.36;102321.56;5045548;27;124148;-73
2021/06/06 07:49:03;;;;;;;31.58;21.52;;;;;;;19.11;62.37;102325.78;5050356;27;114976;-73
2021/06/06 07:51:30;;;;;;;25.73;20.33;;;;;;;19.18;62.27;102319.13;5049913;27;113384;-74
2021/06/06 07:53:57;;;;;;;29.65;20.15;;;;;;;19.24;62.20;102324.13;5036783;27;124161;-74
2021/06/06 07:56:25;;;;;;;27.90;20.63;;;;;;;19.31;61.83;102318.38;5022061;27;123097;-73
2021/06/06 07:58:52;;;;;;;28.90;19.42;;;;;;;19.37;61.58;102320.75;5043549;27;114134;-74
2021/06/06 08:01:20;;;;;;;26.75;19.40;;;;;;;19.42;61.54;102326.69;5043718;27;112879;-75
2021/06/06 08:03:52;;;;;;;23.27;18.50;;;;;;;19.44;61.50;102319.44;5057904;27;124178;-73
2021/06/06 08:06:21;;;;;;;25.80;19.70;;;;;;;19.49;61.72;102320.00;5059370;27;123440;-74
2021/06/06 08:08:52;;;;;;;24.27;18.35;;;;;;;19.57;61.42;102325.81;5059747;27;114299;-73
2021/06/06 08:11:20;;;;;;;23.83;18.08;;;;;;;19.62;61.19;102329.06;5060341;27;114884;-73
2021/06/06 08:13:47;;;;;;;22.50;17.30;;;;;;;19.64;61.02;102329.84;5058107;27;123996;-73
2021/06/06 08:16:14;;;;;;;21.48;16.90;;;;;;;19.69;61.14;102328.72;5060826;27;124044;-73
2021/06/06 08:18:43;;;;;;;23.67;18.15;;;;;;;19.71;60.55;102333.03;5057547;27;113319;-74
2021/06/06 08:21:19;;;;;;;21.65;17.33;;;;;;;19.72;60.48;102333.88;5056407;27;114526;-73
2021/06/06 08:23:48;;;;;;;22.73;17.95;;;;;;;19.75;60.18;102333.75;5055911;27;124097;-73
2021/06/06 08:26:17;;;;;;;20.60;16.67;;;;;;;19.76;60.04;102333.66;5054731;27;123347;-73
2021/06/06 08:28:46;;;;;;;23.73;17.63;;;;;;;19.80;60.06;102334.34;5055986;27;113788;-73
2021/06/06 08:31:16;;;;;;;21.15;17.08;;;;;;;19.81;59.86;102333.38;5033058;28;112329;-74
2021/06/06 08:33:44;;;;;;;20.23;17.25;;;;;;;19.82;59.77;102324.38;5050152;27;123959;-74
2021/06/06 08:36:16;;;;;;;21.05;16.63;;;;;;;19.82;59.63;102335.13;5036091;27;122872;-74
2021/06/06 08:38:44;;;;;;;20.42;16.30;;;;;;;19.82;59.57;102325.22;5054637;27;114543;-73
2021/06/06 08:41:21;;;;;;;23.45;17.50;;;;;;;19.82;59.98;102330.59;5054699;27;114772;-74
2021/06/06 08:43:59;;;;;;;19.63;16.90;;;;;;;19.86;59.62;102325.91;5050539;27;124092;-74
2021/06/06 08:46:30;;;;;;;19.60;16.17;;;;;;;19.89;59.80;102325.72;5049867;27;122626;-74
2021/06/06 08:48:57;;;;;;;19.38;16.80;;;;;;;19.94;59.70;102328.97;5054467;27;114439;-73
2021/06/06 08:51:42;;;;;;;21.50;17.20;;;;;;;19.97;59.61;102334.19;5054197;27;114008;-74
2021/06/06 08:54:32;;;;;;;20.67;17.63;;;;;;;19.99;59.70;102326.88;5045308;27;124096;-73
2021/06/06 08:57:04;;;;;;;21.67;17.63;;;;;;;20.07;59.45;102333.63;5047812;27;123359;-73
2021/06/06 08:59:39;;;;;;;20.27;17.15;;;;;;;20.11;59.65;102329.78;5043572;27;114787;-73
2021/06/06 09:02:21;;;;;;;;;;;;;;;20.18;59.83;102336.50;5040730;27;114305;-73
2021/06/06 09:04:49;;;;;;;21.48;16.98;;;;;;;20.27;59.58;102330.56;5040782;27;124097;-73
2021/06/06 09:07:22;;;;;;;20.55;17.52;;;;;;;20.33;59.51;102335.56;5048494;27;123316;-74
2021/06/06 09:09:51;;;;;;;21.15;17.58;;;;;;;20.39;59.15;102342.38;5047995;27;114165;-73
2021/06/06 09:12:21;;;;;;;21.75;17.55;;;;;;;20.43;59.12;102342.06;5042905;27;114933;-73
2021/06/06 09:14:50;;;;;;;23.27;18.02;;;;;;;20.46;58.89;102340.19;5039712;27;123913;-73
2021/06/06 09:17:20;;;;;;;19.45;17.35;;;;;;;20.51;58.65;102332.66;5043234;27;123983;-73
2021/06/06 09:19:56;;;;;;;20.95;17.67;;;;;;;20.55;58.66;102356.59;5062896;27;113278;-75
2021/06/06 09:22:40;;;;;;;19.35;16.88;;;;;;;20.59;58.47;102351.91;5047970;27;114329;-74
2021/06/06 09:25:26;;;;;;;22.15;17.15;;;;;;;20.65;58.56;102351.53;5050496;27;124708;-74
2021/06/06 09:28:13;;;;;;;19.60;16.77;;;;;;;20.69;58.60;102352.22;5046777;27;124526;-74
2021/06/06 09:30:42;;;;;;;19.80;17.20;;;;;;;20.73;58.45;102353.72;5043518;27;113321;-74
2021/06/06 09:33:54;;;;;;;21.02;17.52;;;;;;;20.77;58.65;102356.13;5044424;27;114693;-74
2021/06/06 09:36:40;;;;;;;21.13;18.17;;;;;;;20.84;58.37;102355.75;4963387;28;123461;-74
2021/06/06 09:39:15;;;;;;;19.88;17.70;;;;;;;20.88;58.31;102347.34;4983810;28;122176;-73
2021/06/06 09:41:46;;;;;;;21.00;16.63;;;;;;;20.96;58.40;102350.44;5031396;27;114208;-73
2021/06/06 09:44:13;;;;;;;21.05;17.83;;;;;;;21.04;58.14;102352.63;5049235;27;114058;-73
2021/06/06 09:47:06;;;;;;;21.73;18.45;;;;;;;21.08;58.13;102348.75;5037922;27;123445;-75
2021/06/06 09:49:46;;;;;;;22.38;17.10;;;;;;;21.16;57.76;102357.19;5052374;27;124008;-72
2021/06/06 09:52:18;;;;;;;21.83;18.38;;;;;;;21.22;57.79;102349.69;5045260;27;114980;-73
2021/06/06 09:54:51;;;;;;;21.80;18.65;;;;;;;21.30;57.70;102352.72;5040407;27;113932;-76
2021/06/06 09:57:36;;;;;;;24.25;19.67;;;;;;;21.37;57.83;102354.03;5046505;27;124866;-73
2021/06/06 10:00:18;;;;;;;21.00;18.07;;;;;;;21.44;57.50;102350.00;5043522;27;123955;-75
2021/06/06 10:02:50;;;;;;;21.80;18.00;;;;;;;21.50;57.51;102356.81;5043314;27;115678;-73
2021/06/06 10:05:30;;;;;;;19.65;17.00;;;;;;;21.55;57.41;102352.84;5045124;27;114082;-75
2021/06/06 10:08:07;;;;;;;19.13;16.95;;;;;;;21.61;57.08;102356.97;5049460;27;124022;-75
2021/06/06 10:10:38;;;;;;;20.48;15.57;;;;;;;21.68;57.12;102346.59;5040747;27;123922;-75
2021/06/06 10:13:10;;;;;;;17.42;15.52;;;;;;;21.77;57.48;102362.16;5036254;27;114433;-75
2021/06/06 10:15:49;;;;;;;17.98;15.55;;;;;;;21.86;57.12;102361.53;5040155;27;114221;-75
2021/06/06 10:18:26;;;;;;;16.80;14.48;;;;;;;21.95;56.65;102360.91;5037848;27;123910;-75
2021/06/06 10:21:04;;;;;;;20.17;14.18;;;;;;;22.03;56.43;102351.41;5039234;27;123900;-75
2021/06/06 10:23:35;;;;;;;18.67;14.35;;;;;;;22.12;56.35;102366.97;5046411;27;114791;-76
2021/06/06 10:26:27;;;;;;;16.55;14.43;;;;;;;22.16;56.21;102357.69;5047048;27;114272;-76
2021/06/06 10:28:55;;;;;;;15.05;13.45;;;;;;;22.25;56.21;102356.19;5021458;27;124442;-75
2021/06/06 10:31:26;;;;;;;16.38;14.13;;;;;;;22.32;56.13;102354.78;5050260;27;123949;-75
2021/06/06 10:34:11;;;;;;;15.23;13.63;;;;;;;22.40;56.37;102354.25;5045870;27;114504;-75
2021/06/06 10:36:40;;;;;;;16.13;14.43;;;;;;;22.49;56.15;102353.56;5051104;27;113862;-75
2021/06/06 10:39:16;;;;;;;15.35;13.10;;;;;;;22.57;55.68;102353.91;5045942;27;124276;-75
2021/06/06 10:42:18;;;;;;;13.55;11.45;;;;;;;22.66;55.24;102350.53;5043511;27;123570;-75
2021/06/06 10:45:10;;;;;;;13.43;12.02;;;;;;;22.80;55.44;102346.81;5046724;27;114508;-75
2021/06/06 10:47:57;;;;;;;14.98;12.70;;;;;;;22.92;55.18;102345.94;5046977;27;114705;-75
2021/06/06 10:50:32;;;;;;;14.73;11.52;;;;;;;23.04;54.59;102344.19;5049872;27;123775;-75
2021/06/06 10:53:25;;;;;;;13.60;11.45;;;;;;;23.17;55.21;102344.16;5033478;27;123435;-75
2021/06/06 10:56:09;;;;;;;10.88;9.77;;;;;;;23.28;54.18;102346.03;5032956;27;114767;-75
2021/06/06 10:58:44;;;;;;;10.82;9.45;;;;;;;23.36;53.99;102343.63;5019472;27;97410;-74
2021/06/06 11:01:17;;;;;;;11.15;10.05;;;;;;;23.43;53.67;102334.06;5045312;27;123524;-74
2021/06/06 11:03:47;;;;;;;11.43;9.93;;;;;;;23.56;53.50;102338.53;5043414;27;123826;-74
2021/06/06 11:06:30;;;;;;;11.18;9.82;;;;;;;23.64;53.32;102336.09;5041325;27;113338;-74
2021/06/06 11:08:58;;;;;;;11.32;10.18;;;;;;;23.72;53.46;102333.66;5043088;27;113775;-75
2021/06/06 11:11:36;;;;;;;11.18;9.65;;;;;;;23.84;52.88;102327.31;5062059;27;124174;-74
2021/06/06 11:14:12;;;;;;;9.98;8.60;;;;;;;23.98;52.46;102322.66;5044101;27;124137;-75
2021/06/06 11:16:53;;;;;;;11.93;9.18;;;;;;;24.08;51.62;102323.69;5041040;27;114868;-75
2021/06/06 11:19:20;;;;;;;11.02;9.10;;;;;;;24.14;51.27;102323.19;5036356;27;113707;-75
2021/06/06 11:21:49;;;;;;;10.30;8.50;;;;;;;24.16;50.99;102321.22;5046339;27;122902;-75
2021/06/06 11:24:44;;;;;;;10.55;8.82;;;;;;;24.18;51.15;102324.66;5040551;27;123305;-74
2021/06/06 11:27:11;;;;;;;11.13;9.55;;;;;;;24.21;50.59;102324.44;5040723;27;114257;-74
2021/06/06 11:29:59;;;;;;;10.65;9.10;;;;;;;24.21;50.39;102324.44;5023357;27;113141;-75